createdAt,value
2023-01-02T00:01:03.483Z,71.80
2023-01-02T00:08:05.470Z,72.00
2023-01-02T00:15:07.350Z,72.04
2023-01-02T00:22:09.040Z,72.82
2023-01-02T00:29:10.695Z,73.58
2023-01-02T00:36:12.837Z,73.38
2023-01-02T00:43:14.449Z,74.20
2023-01-02T00:50:16.171Z,73.84
2023-01-02T00:57:17.751Z,73.91
2023-01-02T01:04:19.396Z,74.18
2023-01-02T01:11:21.130Z,74.06
2023-01-02T01:18:22.741Z,74.12
2023-01-02T01:25:24.355Z,74.77
2023-01-02T01:32:26.018Z,74.89
2023-01-02T01:39:27.760Z,75.03
2023-01-02T01:46:36.918Z,75.62
2023-01-02T01:53:38.575Z,75.29
2023-01-02T02:00:40.565Z,75.04
2023-01-02T02:07:44.956Z,75.02
2023-01-02T02:14:46.587Z,74.74
2023-01-02T02:22:09.930Z,74.22
2023-01-02T02:29:59.608Z,73.68
2023-01-02T02:37:08.100Z,72.43
2023-01-02T02:44:20.576Z,70.81
2023-01-02T02:52:03.516Z,68.76
2023-01-02T02:59:05.164Z,68.57
2023-01-02T03:06:18.880Z,68.45
2023-01-02T03:13:40.921Z,68.18
2023-01-02T03:20:45.354Z,68.00
2023-01-02T03:27:46.996Z,67.32
2023-01-02T03:34:48.743Z,67.28
2023-01-02T03:41:56.485Z,67.11
2023-01-02T03:49:12.147Z,66.53
2023-01-02T03:56:20.329Z,65.66
2023-01-02T04:03:26.111Z,65.68
2023-01-02T04:10:28.581Z,65.49
2023-01-02T04:17:31.837Z,65.46
2023-01-02T04:24:35.848Z,65.47
2023-01-02T04:31:42.437Z,65.34
2023-01-02T04:38:44.700Z,65.05
2023-01-02T04:45:50.292Z,64.61
2023-01-02T04:52:51.997Z,64.30
2023-01-02T04:59:53.609Z,64.53
2023-01-02T05:06:55.245Z,63.78
2023-01-02T05:13:57.729Z,62.77
2023-01-02T05:21:07.163Z,63.25
2023-01-02T05:28:08.851Z,63.20
2023-01-02T05:35:10.471Z,62.87
2023-01-02T05:42:12.098Z,62.97
2023-01-02T05:49:13.679Z,62.81
2023-01-02T05:56:16.859Z,62.60
2023-01-02T06:03:18.537Z,62.48
2023-01-02T06:10:20.132Z,61.73
2023-01-02T06:17:22.575Z,61.52
2023-01-02T06:24:24.184Z,61.33
2023-01-02T06:31:28.130Z,61.38
2023-01-02T06:38:29.894Z,61.53
2023-01-02T06:45:31.563Z,61.16
2023-01-02T06:52:33.221Z,60.79
2023-01-02T06:59:34.920Z,59.65
2023-01-02T07:06:36.515Z,59.29
2023-01-02T07:13:38.816Z,59.69
2023-01-02T07:20:40.402Z,59.88
2023-01-02T07:27:41.976Z,59.43
2023-01-02T07:34:43.614Z,57.65
2023-01-02T07:41:45.592Z,57.52
2023-01-02T07:48:50.374Z,57.80
2023-01-02T07:55:56.045Z,57.55
2023-01-02T08:02:57.683Z,57.28
2023-01-02T08:09:59.326Z,57.19
2023-01-02T08:17:00.944Z,56.33
2023-01-02T08:24:02.796Z,56.00
2023-01-02T08:31:12.300Z,55.14
2023-01-02T08:38:14.383Z,55.69
2023-01-02T08:45:16.413Z,55.35
2023-01-02T08:52:18.020Z,55.22
2023-01-02T08:59:20.059Z,53.77
2023-01-02T09:06:22.780Z,54.23
2023-01-02T09:13:24.434Z,54.06
2023-01-02T09:20:26.301Z,53.98
2023-01-02T09:27:27.930Z,53.48
2023-01-02T09:34:29.580Z,54.44
2023-01-02T09:41:39.685Z,53.41
2023-01-02T09:48:41.191Z,52.31
2023-01-02T09:55:42.755Z,52.04
2023-01-02T10:02:56.402Z,51.33
2023-01-02T10:10:10.639Z,50.50
2023-01-02T10:17:13.160Z,51.92
2023-01-02T10:24:25.489Z,51.73
2023-01-02T10:31:43.771Z,49.74
2023-01-02T10:38:45.434Z,49.13
2023-01-02T10:45:47.214Z,48.92
2023-01-02T10:52:53.378Z,48.88
2023-01-02T10:59:57.252Z,48.31
2023-01-02T11:07:00.647Z,48.08
2023-01-02T11:14:07.170Z,47.91
2023-01-02T11:21:08.826Z,48.53
2023-01-02T11:28:22.453Z,50.41
2023-01-02T11:35:54.319Z,51.67
2023-01-02T11:43:16.555Z,51.21
2023-01-02T11:50:27.833Z,51.85
2023-01-02T11:57:36.099Z,51.70
2023-01-02T12:04:37.771Z,51.55
2023-01-02T12:11:45.174Z,51.86
2023-01-02T12:19:07.877Z,53.90
2023-01-02T12:26:14.022Z,53.75
2023-01-02T12:33:19.411Z,52.36
2023-01-02T12:40:49.298Z,51.84
2023-01-02T12:47:57.446Z,50.19
2023-01-02T12:55:17.065Z,51.49
2023-01-02T13:02:44.874Z,52.40
2023-01-02T13:09:46.657Z,53.70
2023-01-02T13:16:56.133Z,52.60
2023-01-02T13:23:57.794Z,52.21
2023-01-02T13:31:44.089Z,52.23
2023-01-02T13:38:28.880Z,51.54
2023-01-02T13:45:34.943Z,51.38
2023-01-02T13:52:36.557Z,51.72
2023-01-02T13:59:42.804Z,52.15
2023-01-02T14:06:53.581Z,52.03
2023-01-02T14:13:55.842Z,52.07
2023-01-02T14:20:57.629Z,52.77
2023-01-02T14:28:03.546Z,52.23
2023-01-02T14:35:14.268Z,52.28
2023-01-02T14:42:52.688Z,51.46
2023-01-02T14:49:58.319Z,51.82
2023-01-02T14:57:26.878Z,51.25
2023-01-02T15:04:41.165Z,51.54
2023-01-02T15:12:14.793Z,51.07
2023-01-02T15:19:22.018Z,51.00
2023-01-02T15:26:33.519Z,52.39
2023-01-02T15:33:35.938Z,52.29
2023-01-02T15:40:39.554Z,52.68
2023-01-02T15:47:45.114Z,53.51
2023-01-02T15:54:46.937Z,54.21
2023-01-02T16:01:48.683Z,56.74
2023-01-02T16:08:55.052Z,57.63
2023-01-02T16:16:16.313Z,58.91
2023-01-02T16:23:19.823Z,58.56
2023-01-02T16:30:28.502Z,59.50
2023-01-02T16:37:34.864Z,59.09
2023-01-02T16:44:36.583Z,59.82
2023-01-02T16:51:42.661Z,60.43
2023-01-02T16:58:44.468Z,60.24
2023-01-02T17:06:01.337Z,58.64
2023-01-02T17:13:04.383Z,58.90
2023-01-02T17:20:07.460Z,60.28
2023-01-02T17:27:09.093Z,58.98
2023-01-02T17:34:11.070Z,59.70
2023-01-02T17:41:12.679Z,59.52
2023-01-02T17:48:17.326Z,58.63
2023-01-02T17:55:23.594Z,57.73
2023-01-02T18:02:25.345Z,58.13
2023-01-02T18:09:27.516Z,57.64
2023-01-02T18:16:33.515Z,57.77
2023-01-02T18:23:35.270Z,58.10
2023-01-02T18:30:36.979Z,58.81
2023-01-02T18:37:38.895Z,58.68
2023-01-02T18:44:41.213Z,58.47
2023-01-02T18:51:42.884Z,58.14
2023-01-02T18:59:06.346Z,57.31
2023-01-02T19:06:17.202Z,57.80
2023-01-02T19:13:31.456Z,57.14
2023-01-02T19:20:33.167Z,57.74
2023-01-02T19:27:37.015Z,57.67
2023-01-02T19:34:46.660Z,58.61
2023-01-02T19:42:06.819Z,59.57
2023-01-02T19:49:08.457Z,59.42
2023-01-02T19:56:10.061Z,60.43
2023-01-02T20:03:12.277Z,60.22
2023-01-02T20:10:14.047Z,61.11
2023-01-02T20:17:15.765Z,61.30
2023-01-02T20:24:17.660Z,61.67
2023-01-02T20:31:19.357Z,61.80
2023-01-02T20:38:21.395Z,62.18
2023-01-02T20:45:23.022Z,62.11
2023-01-02T20:52:24.683Z,62.60
2023-01-02T20:59:26.535Z,62.17
2023-01-02T21:06:28.465Z,62.60
2023-01-02T21:13:30.105Z,62.91
2023-01-02T21:20:31.704Z,62.86
2023-01-02T21:27:33.312Z,63.12
2023-01-02T21:34:34.940Z,62.94
2023-01-02T21:41:55.326Z,63.00
2023-01-02T21:48:57.028Z,63.21
2023-01-02T21:55:58.654Z,65.38
2023-01-02T22:03:00.364Z,65.92
2023-01-02T22:10:02.162Z,66.74
2023-01-02T22:17:08.497Z,67.49
2023-01-02T22:24:10.260Z,67.39
2023-01-02T22:31:12.119Z,67.42
2023-01-02T22:38:13.949Z,68.24
2023-01-02T22:45:20.379Z,68.79
2023-01-02T22:52:21.976Z,69.14
2023-01-02T22:59:23.557Z,68.93
2023-01-02T23:06:25.306Z,69.72
2023-01-02T23:13:27.084Z,69.40
2023-01-02T23:20:28.866Z,69.01
2023-01-02T23:27:30.525Z,69.55
2023-01-02T23:34:32.167Z,69.40
2023-01-02T23:41:34.462Z,69.77
2023-01-02T23:48:36.736Z,69.06
2023-01-02T23:55:42.914Z,68.88
